sensor_id;sensor_type;location;lat;lon;timestamp;P1;durP1;ratioP1;P2;durP2;ratioP2
57663;SDS011;43493;53.098;6.064;2022-10-16T00:01:41;6.63;;;2.10;;
57663;SDS011;43493;53.098;6.064;2022-10-16T00:04:08;9.17;;;2.40;;
57663;SDS011;43493;53.098;6.064;2022-10-16T00:06:34;8.10;;;2.40;;
57663;SDS011;43493;53.098;6.064;2022-10-16T00:09:00;8.37;;;2.23;;
57663;SDS011;43493;53.098;6.064;2022-10-16T00:11:28;13.43;;;2.40;;
57663;SDS011;43493;53.098;6.064;2022-10-16T00:13:55;7.33;;;1.87;;
57663;SDS011;43493;53.098;6.064;2022-10-16T00:16:21;9.37;;;2.17;;
57663;SDS011;43493;53.098;6.064;2022-10-16T00:18:48;9.67;;;1.83;;
57663;SDS011;43493;53.098;6.064;2022-10-16T00:21:15;8.07;;;2.10;;
57663;SDS011;43493;53.098;6.064;2022-10-16T00:23:41;8.17;;;1.90;;
57663;SDS011;43493;53.098;6.064;2022-10-16T00:26:12;8.90;;;2.10;;
57663;SDS011;43493;53.098;6.064;2022-10-16T00:28:39;10.20;;;2.47;;
57663;SDS011;43493;53.098;6.064;2022-10-16T00:31:05;9.67;;;2.23;;
57663;SDS011;43493;53.098;6.064;2022-10-16T00:33:32;10.73;;;2.10;;
57663;SDS011;43493;53.098;6.064;2022-10-16T00:35:59;5.77;;;1.77;;
57663;SDS011;43493;53.098;6.064;2022-10-16T00:38:25;9.30;;;1.80;;
57663;SDS011;43493;53.098;6.064;2022-10-16T00:40:51;15.33;;;3.10;;
57663;SDS011;43493;53.098;6.064;2022-10-16T00:46:03;9.20;;;2.10;;
57663;SDS011;43493;53.098;6.064;2022-10-16T00:48:30;6.97;;;1.83;;
57663;SDS011;43493;53.098;6.064;2022-10-16T00:50:56;7.33;;;1.63;;
57663;SDS011;43493;53.098;6.064;2022-10-16T00:53:23;6.87;;;1.53;;
57663;SDS011;43493;53.098;6.064;2022-10-16T00:55:51;11.33;;;2.00;;
57663;SDS011;43493;53.098;6.064;2022-10-16T00:58:17;10.90;;;2.33;;
57663;SDS011;43493;53.098;6.064;2022-10-16T01:00:43;7.60;;;2.03;;
57663;SDS011;43493;53.098;6.064;2022-10-16T01:03:29;7.20;;;1.60;;
57663;SDS011;43493;53.098;6.064;2022-10-16T01:08:34;10.03;;;2.03;;
57663;SDS011;43493;53.098;6.064;2022-10-16T01:11:05;7.47;;;1.70;;
57663;SDS011;43493;53.098;6.064;2022-10-16T01:13:35;11.30;;;1.90;;
57663;SDS011;43493;53.098;6.064;2022-10-16T01:16:16;10.50;;;1.87;;
57663;SDS011;43493;53.098;6.064;2022-10-16T01:18:44;8.97;;;2.43;;
57663;SDS011;43493;53.098;6.064;2022-10-16T01:34:06;7.63;;;2.03;;
57663;SDS011;43493;53.098;6.064;2022-10-16T01:36:35;10.47;;;1.90;;
57663;SDS011;43493;53.098;6.064;2022-10-16T01:39:02;7.20;;;2.00;;
57663;SDS011;43493;53.098;6.064;2022-10-16T01:41:32;7.20;;;2.00;;
57663;SDS011;43493;53.098;6.064;2022-10-16T01:44:04;8.30;;;1.97;;
57663;SDS011;43493;53.098;6.064;2022-10-16T01:46:31;6.80;;;2.13;;
57663;SDS011;43493;53.098;6.064;2022-10-16T01:48:59;7.93;;;2.30;;
57663;SDS011;43493;53.098;6.064;2022-10-16T01:51:26;9.13;;;2.10;;
57663;SDS011;43493;53.098;6.064;2022-10-16T01:53:55;7.17;;;2.20;;
57663;SDS011;43493;53.098;6.064;2022-10-16T01:56:22;7.20;;;1.90;;
57663;SDS011;43493;53.098;6.064;2022-10-16T01:59:06;5.40;;;2.00;;
57663;SDS011;43493;53.098;6.064;2022-10-16T02:01:35;6.45;;;2.47;;
57663;SDS011;43493;53.098;6.064;2022-10-16T02:04:11;8.40;;;2.23;;
57663;SDS011;43493;53.098;6.064;2022-10-16T02:06:39;5.83;;;1.97;;
57663;SDS011;43493;53.098;6.064;2022-10-16T02:09:05;7.67;;;1.90;;
57663;SDS011;43493;53.098;6.064;2022-10-16T02:11:31;6.07;;;2.23;;
57663;SDS011;43493;53.098;6.064;2022-10-16T02:14:01;9.80;;;2.17;;
57663;SDS011;43493;53.098;6.064;2022-10-16T02:16:35;8.20;;;2.10;;
57663;SDS011;43493;53.098;6.064;2022-10-16T02:19:02;8.70;;;2.00;;
57663;SDS011;43493;53.098;6.064;2022-10-16T02:21:30;7.13;;;2.27;;
57663;SDS011;43493;53.098;6.064;2022-10-16T02:27:10;5.77;;;2.00;;
57663;SDS011;43493;53.098;6.064;2022-10-16T02:29:17;9.30;;;2.53;;
57663;SDS011;43493;53.098;6.064;2022-10-16T02:31:45;5.40;;;1.90;;
57663;SDS011;43493;53.098;6.064;2022-10-16T02:34:12;7.07;;;2.00;;
57663;SDS011;43493;53.098;6.064;2022-10-16T02:36:39;5.87;;;2.03;;
57663;SDS011;43493;53.098;6.064;2022-10-16T02:39:06;7.53;;;2.17;;
57663;SDS011;43493;53.098;6.064;2022-10-16T02:41:32;6.93;;;2.30;;
57663;SDS011;43493;53.098;6.064;2022-10-16T02:43:58;5.67;;;2.00;;
57663;SDS011;43493;53.098;6.064;2022-10-16T02:46:25;5.70;;;2.10;;
57663;SDS011;43493;53.098;6.064;2022-10-16T02:48:51;7.37;;;1.90;;
57663;SDS011;43493;53.098;6.064;2022-10-16T02:51:17;5.00;;;1.70;;
57663;SDS011;43493;53.098;6.064;2022-10-16T02:53:43;6.33;;;2.13;;
57663;SDS011;43493;53.098;6.064;2022-10-16T02:56:09;5.10;;;1.97;;
57663;SDS011;43493;53.098;6.064;2022-10-16T02:58:35;6.80;;;2.23;;
57663;SDS011;43493;53.098;6.064;2022-10-16T03:01:01;6.53;;;1.90;;
57663;SDS011;43493;53.098;6.064;2022-10-16T03:03:27;6.20;;;1.97;;
57663;SDS011;43493;53.098;6.064;2022-10-16T03:05:53;5.60;;;2.20;;
57663;SDS011;43493;53.098;6.064;2022-10-16T03:08:19;11.47;;;2.00;;
57663;SDS011;43493;53.098;6.064;2022-10-16T03:10:48;6.47;;;2.07;;
57663;SDS011;43493;53.098;6.064;2022-10-16T03:13:14;7.20;;;2.30;;
57663;SDS011;43493;53.098;6.064;2022-10-16T03:15:40;7.63;;;2.00;;
57663;SDS011;43493;53.098;6.064;2022-10-16T03:18:07;5.50;;;1.73;;
57663;SDS011;43493;53.098;6.064;2022-10-16T03:20:33;9.30;;;2.30;;
57663;SDS011;43493;53.098;6.064;2022-10-16T03:22:59;7.57;;;2.07;;
57663;SDS011;43493;53.098;6.064;2022-10-16T03:25:25;5.40;;;2.30;;
57663;SDS011;43493;53.098;6.064;2022-10-16T03:27:51;7.30;;;2.13;;
57663;SDS011;43493;53.098;6.064;2022-10-16T03:30:17;5.80;;;2.10;;
57663;SDS011;43493;53.098;6.064;2022-10-16T03:32:44;7.40;;;1.87;;
57663;SDS011;43493;53.098;6.064;2022-10-16T03:35:10;5.97;;;2.30;;
57663;SDS011;43493;53.098;6.064;2022-10-16T03:37:36;8.67;;;2.50;;
57663;SDS011;43493;53.098;6.064;2022-10-16T03:40:02;7.00;;;2.23;;
57663;SDS011;43493;53.098;6.064;2022-10-16T03:42:29;7.53;;;2.47;;
57663;SDS011;43493;53.098;6.064;2022-10-16T03:44:55;4.70;;;1.87;;
57663;SDS011;43493;53.098;6.064;2022-10-16T03:47:21;5.50;;;1.63;;
57663;SDS011;43493;53.098;6.064;2022-10-16T03:49:48;8.03;;;2.13;;
57663;SDS011;43493;53.098;6.064;2022-10-16T03:52:15;5.10;;;2.00;;
57663;SDS011;43493;53.098;6.064;2022-10-16T03:54:41;8.00;;;2.10;;
57663;SDS011;43493;53.098;6.064;2022-10-16T03:57:07;7.17;;;2.40;;
57663;SDS011;43493;53.098;6.064;2022-10-16T03:59:33;6.50;;;2.10;;
57663;SDS011;43493;53.098;6.064;2022-10-16T04:01:59;6.87;;;2.43;;
57663;SDS011;43493;53.098;6.064;2022-10-16T04:04:25;7.67;;;2.57;;
57663;SDS011;43493;53.098;6.064;2022-10-16T04:06:51;8.60;;;2.10;;
57663;SDS011;43493;53.098;6.064;2022-10-16T04:09:17;5.73;;;1.80;;
57663;SDS011;43493;53.098;6.064;2022-10-16T04:11:43;7.43;;;2.27;;
57663;SDS011;43493;53.098;6.064;2022-10-16T04:14:09;5.63;;;1.80;;
57663;SDS011;43493;53.098;6.064;2022-10-16T04:16:35;3.63;;;1.53;;
57663;SDS011;43493;53.098;6.064;2022-10-16T04:19:01;5.73;;;1.77;;
57663;SDS011;43493;53.098;6.064;2022-10-16T04:21:27;4.80;;;2.03;;
57663;SDS011;43493;53.098;6.064;2022-10-16T04:23:53;5.63;;;2.00;;
57663;SDS011;43493;53.098;6.064;2022-10-16T04:26:19;7.67;;;1.87;;
57663;SDS011;43493;53.098;6.064;2022-10-16T04:28:45;5.80;;;1.67;;
57663;SDS011;43493;53.098;6.064;2022-10-16T04:31:11;7.00;;;2.17;;
57663;SDS011;43493;53.098;6.064;2022-10-16T04:33:38;5.23;;;2.10;;
57663;SDS011;43493;53.098;6.064;2022-10-16T04:36:04;5.80;;;1.80;;
57663;SDS011;43493;53.098;6.064;2022-10-16T04:38:30;4.67;;;1.83;;
57663;SDS011;43493;53.098;6.064;2022-10-16T04:40:56;5.50;;;1.87;;
57663;SDS011;43493;53.098;6.064;2022-10-16T04:43:22;5.57;;;1.80;;
57663;SDS011;43493;53.098;6.064;2022-10-16T04:45:49;4.77;;;1.77;;
57663;SDS011;43493;53.098;6.064;2022-10-16T04:48:16;6.17;;;1.70;;
57663;SDS011;43493;53.098;6.064;2022-10-16T04:50:42;5.87;;;1.80;;
57663;SDS011;43493;53.098;6.064;2022-10-16T04:53:08;9.07;;;1.80;;
57663;SDS011;43493;53.098;6.064;2022-10-16T04:55:34;4.33;;;1.80;;
57663;SDS011;43493;53.098;6.064;2022-10-16T04:58:00;6.03;;;1.97;;
57663;SDS011;43493;53.098;6.064;2022-10-16T05:00:26;8.83;;;1.90;;
57663;SDS011;43493;53.098;6.064;2022-10-16T05:02:52;5.20;;;2.07;;
57663;SDS011;43493;53.098;6.064;2022-10-16T05:05:18;8.47;;;1.90;;
57663;SDS011;43493;53.098;6.064;2022-10-16T05:07:45;7.20;;;2.00;;
57663;SDS011;43493;53.098;6.064;2022-10-16T05:10:11;6.47;;;2.10;;
57663;SDS011;43493;53.098;6.064;2022-10-16T05:12:37;5.23;;;2.07;;
57663;SDS011;43493;53.098;6.064;2022-10-16T05:15:03;7.73;;;2.40;;
57663;SDS011;43493;53.098;6.064;2022-10-16T05:17:29;5.37;;;2.30;;
57663;SDS011;43493;53.098;6.064;2022-10-16T05:19:56;5.87;;;2.10;;
57663;SDS011;43493;53.098;6.064;2022-10-16T05:22:22;7.17;;;2.63;;
57663;SDS011;43493;53.098;6.064;2022-10-16T05:24:48;9.03;;;3.10;;
57663;SDS011;43493;53.098;6.064;2022-10-16T05:27:14;5.50;;;2.30;;
57663;SDS011;43493;53.098;6.064;2022-10-16T05:29:44;5.23;;;2.30;;
57663;SDS011;43493;53.098;6.064;2022-10-16T05:32:11;7.17;;;2.70;;
57663;SDS011;43493;53.098;6.064;2022-10-16T05:34:37;6.70;;;2.40;;
57663;SDS011;43493;53.098;6.064;2022-10-16T05:37:03;6.77;;;2.50;;
57663;SDS011;43493;53.098;6.064;2022-10-16T05:39:29;7.30;;;2.83;;
57663;SDS011;43493;53.098;6.064;2022-10-16T05:41:55;7.60;;;2.23;;
57663;SDS011;43493;53.098;6.064;2022-10-16T05:44:22;8.40;;;2.60;;
57663;SDS011;43493;53.098;6.064;2022-10-16T05:46:48;7.23;;;2.90;;
57663;SDS011;43493;53.098;6.064;2022-10-16T05:49:14;9.10;;;2.70;;
57663;SDS011;43493;53.098;6.064;2022-10-16T05:51:40;7.10;;;2.70;;
57663;SDS011;43493;53.098;6.064;2022-10-16T05:54:07;6.53;;;2.80;;
57663;SDS011;43493;53.098;6.064;2022-10-16T05:56:33;8.63;;;2.70;;
57663;SDS011;43493;53.098;6.064;2022-10-16T05:58:59;10.17;;;3.70;;
57663;SDS011;43493;53.098;6.064;2022-10-16T06:01:25;9.37;;;3.27;;
57663;SDS011;43493;53.098;6.064;2022-10-16T06:03:51;7.90;;;2.77;;
57663;SDS011;43493;53.098;6.064;2022-10-16T06:06:19;9.23;;;3.57;;
57663;SDS011;43493;53.098;6.064;2022-10-16T06:08:45;7.90;;;3.20;;
57663;SDS011;43493;53.098;6.064;2022-10-16T06:11:14;6.37;;;3.03;;
57663;SDS011;43493;53.098;6.064;2022-10-16T06:13:40;7.63;;;2.90;;
57663;SDS011;43493;53.098;6.064;2022-10-16T06:16:07;9.60;;;3.17;;
57663;SDS011;43493;53.098;6.064;2022-10-16T06:18:34;6.97;;;2.93;;
57663;SDS011;43493;53.098;6.064;2022-10-16T06:21:06;7.73;;;3.07;;
57663;SDS011;43493;53.098;6.064;2022-10-16T06:23:32;7.70;;;3.00;;
57663;SDS011;43493;53.098;6.064;2022-10-16T06:26:05;6.20;;;2.50;;
57663;SDS011;43493;53.098;6.064;2022-10-16T06:28:31;8.47;;;2.90;;
57663;SDS011;43493;53.098;6.064;2022-10-16T06:31:01;9.67;;;3.03;;
57663;SDS011;43493;53.098;6.064;2022-10-16T06:33:27;11.93;;;3.00;;
57663;SDS011;43493;53.098;6.064;2022-10-16T06:35:53;10.57;;;2.73;;
57663;SDS011;43493;53.098;6.064;2022-10-16T06:38:19;9.90;;;2.97;;
57663;SDS011;43493;53.098;6.064;2022-10-16T06:40:45;7.40;;;2.67;;
57663;SDS011;43493;53.098;6.064;2022-10-16T06:43:13;11.13;;;3.00;;
57663;SDS011;43493;53.098;6.064;2022-10-16T06:45:39;8.57;;;2.40;;
57663;SDS011;43493;53.098;6.064;2022-10-16T06:48:05;7.93;;;2.40;;
57663;SDS011;43493;53.098;6.064;2022-10-16T06:50:31;6.83;;;2.37;;
57663;SDS011;43493;53.098;6.064;2022-10-16T06:52:57;8.00;;;2.87;;
57663;SDS011;43493;53.098;6.064;2022-10-16T06:55:23;6.13;;;2.90;;
57663;SDS011;43493;53.098;6.064;2022-10-16T06:57:49;9.57;;;3.00;;
57663;SDS011;43493;53.098;6.064;2022-10-16T07:00:16;8.93;;;2.57;;
57663;SDS011;43493;53.098;6.064;2022-10-16T07:02:42;8.30;;;2.73;;
57663;SDS011;43493;53.098;6.064;2022-10-16T07:05:08;7.67;;;2.40;;
57663;SDS011;43493;53.098;6.064;2022-10-16T07:07:34;7.90;;;2.70;;
57663;SDS011;43493;53.098;6.064;2022-10-16T07:10:00;7.63;;;3.10;;
57663;SDS011;43493;53.098;6.064;2022-10-16T07:12:26;8.37;;;3.00;;
57663;SDS011;43493;53.098;6.064;2022-10-16T07:14:52;10.23;;;2.97;;
57663;SDS011;43493;53.098;6.064;2022-10-16T07:17:19;7.33;;;3.07;;
57663;SDS011;43493;53.098;6.064;2022-10-16T07:19:46;8.80;;;2.90;;
57663;SDS011;43493;53.098;6.064;2022-10-16T07:22:12;7.53;;;2.63;;
57663;SDS011;43493;53.098;6.064;2022-10-16T07:24:38;10.80;;;2.60;;
57663;SDS011;43493;53.098;6.064;2022-10-16T07:27:04;6.47;;;2.37;;
57663;SDS011;43493;53.098;6.064;2022-10-16T07:29:30;5.87;;;2.47;;
57663;SDS011;43493;53.098;6.064;2022-10-16T07:31:56;7.27;;;2.40;;
57663;SDS011;43493;53.098;6.064;2022-10-16T07:34:22;10.43;;;2.93;;
57663;SDS011;43493;53.098;6.064;2022-10-16T07:36:49;6.20;;;2.83;;
57663;SDS011;43493;53.098;6.064;2022-10-16T07:39:15;9.97;;;2.80;;
57663;SDS011;43493;53.098;6.064;2022-10-16T07:41:41;9.07;;;3.27;;
57663;SDS011;43493;53.098;6.064;2022-10-16T07:44:07;8.50;;;2.43;;
57663;SDS011;43493;53.098;6.064;2022-10-16T07:46:33;7.90;;;3.07;;
57663;SDS011;43493;53.098;6.064;2022-10-16T07:49:01;8.27;;;2.57;;
57663;SDS011;43493;53.098;6.064;2022-10-16T07:51:27;8.87;;;3.17;;
57663;SDS011;43493;53.098;6.064;2022-10-16T07:53:53;7.30;;;2.73;;
57663;SDS011;43493;53.098;6.064;2022-10-16T07:56:20;6.87;;;3.10;;
57663;SDS011;43493;53.098;6.064;2022-10-16T07:58:46;8.37;;;2.60;;
57663;SDS011;43493;53.098;6.064;2022-10-16T08:01:15;7.63;;;2.60;;
57663;SDS011;43493;53.098;6.064;2022-10-16T08:03:42;9.80;;;3.60;;
57663;SDS011;43493;53.098;6.064;2022-10-16T08:06:08;11.10;;;3.00;;
57663;SDS011;43493;53.098;6.064;2022-10-16T08:08:34;7.70;;;2.90;;
57663;SDS011;43493;53.098;6.064;2022-10-16T08:11:00;7.50;;;2.30;;
57663;SDS011;43493;53.098;6.064;2022-10-16T08:13:28;8.20;;;2.67;;
57663;SDS011;43493;53.098;6.064;2022-10-16T08:15:54;7.07;;;2.27;;
57663;SDS011;43493;53.098;6.064;2022-10-16T08:18:20;7.27;;;2.53;;
57663;SDS011;43493;53.098;6.064;2022-10-16T08:20:47;7.50;;;2.17;;
57663;SDS011;43493;53.098;6.064;2022-10-16T08:23:13;9.27;;;2.80;;
57663;SDS011;43493;53.098;6.064;2022-10-16T08:25:39;7.17;;;2.30;;
57663;SDS011;43493;53.098;6.064;2022-10-16T08:28:06;9.17;;;2.47;;
57663;SDS011;43493;53.098;6.064;2022-10-16T08:30:32;8.23;;;1.70;;
57663;SDS011;43493;53.098;6.064;2022-10-16T08:32:59;9.80;;;2.27;;
57663;SDS011;43493;53.098;6.064;2022-10-16T08:35:25;6.53;;;1.70;;
57663;SDS011;43493;53.098;6.064;2022-10-16T08:37:51;12.30;;;2.43;;
57663;SDS011;43493;53.098;6.064;2022-10-16T08:40:19;7.43;;;2.10;;
57663;SDS011;43493;53.098;6.064;2022-10-16T08:45:32;8.77;;;2.40;;
57663;SDS011;43493;53.098;6.064;2022-10-16T08:48:04;8.77;;;2.67;;
57663;SDS011;43493;53.098;6.064;2022-10-16T08:50:36;10.20;;;3.50;;
57663;SDS011;43493;53.098;6.064;2022-10-16T08:53:04;9.13;;;2.20;;
57663;SDS011;43493;53.098;6.064;2022-10-16T08:55:38;8.40;;;2.80;;
57663;SDS011;43493;53.098;6.064;2022-10-16T08:58:17;10.93;;;2.40;;
57663;SDS011;43493;53.098;6.064;2022-10-16T09:00:44;10.20;;;2.73;;
57663;SDS011;43493;53.098;6.064;2022-10-16T09:03:23;8.20;;;2.70;;
57663;SDS011;43493;53.098;6.064;2022-10-16T09:13:58;8.50;;;2.20;;
57663;SDS011;43493;53.098;6.064;2022-10-16T09:16:30;11.87;;;2.40;;
57663;SDS011;43493;53.098;6.064;2022-10-16T09:21:38;18.92;;;2.90;;
57663;SDS011;43493;53.098;6.064;2022-10-16T09:24:29;13.50;;;2.60;;
57663;SDS011;43493;53.098;6.064;2022-10-16T09:26:53;13.20;;;2.70;;
57663;SDS011;43493;53.098;6.064;2022-10-16T09:29:20;15.93;;;2.50;;
57663;SDS011;43493;53.098;6.064;2022-10-16T09:31:47;12.47;;;2.23;;
57663;SDS011;43493;53.098;6.064;2022-10-16T09:34:35;13.33;;;3.17;;
57663;SDS011;43493;53.098;6.064;2022-10-16T09:37:00;10.53;;;2.20;;
57663;SDS011;43493;53.098;6.064;2022-10-16T09:39:27;16.10;;;2.70;;
57663;SDS011;43493;53.098;6.064;2022-10-16T09:41:53;14.30;;;2.73;;
57663;SDS011;43493;53.098;6.064;2022-10-16T09:44:30;16.83;;;3.17;;
57663;SDS011;43493;53.098;6.064;2022-10-16T09:49:28;12.47;;;2.43;;
57663;SDS011;43493;53.098;6.064;2022-10-16T09:52:14;14.83;;;2.50;;
57663;SDS011;43493;53.098;6.064;2022-10-16T09:54:51;13.30;;;2.67;;
57663;SDS011;43493;53.098;6.064;2022-10-16T09:57:18;13.23;;;2.40;;
57663;SDS011;43493;53.098;6.064;2022-10-16T09:59:54;14.17;;;2.73;;
57663;SDS011;43493;53.098;6.064;2022-10-16T10:02:36;14.60;;;3.77;;
57663;SDS011;43493;53.098;6.064;2022-10-16T10:05:16;12.10;;;2.40;;
57663;SDS011;43493;53.098;6.064;2022-10-16T10:07:44;12.80;;;2.70;;
57663;SDS011;43493;53.098;6.064;2022-10-16T10:10:21;14.87;;;2.67;;
57663;SDS011;43493;53.098;6.064;2022-10-16T10:12:48;13.33;;;2.50;;
57663;SDS011;43493;53.098;6.064;2022-10-16T10:15:14;12.33;;;2.60;;
57663;SDS011;43493;53.098;6.064;2022-10-16T10:17:53;14.17;;;2.30;;
57663;SDS011;43493;53.098;6.064;2022-10-16T10:20:27;13.07;;;2.90;;
57663;SDS011;43493;53.098;6.064;2022-10-16T10:22:53;12.90;;;3.50;;
57663;SDS011;43493;53.098;6.064;2022-10-16T10:30:27;13.97;;;3.00;;
57663;SDS011;43493;53.098;6.064;2022-10-16T10:43:04;14.90;;;3.20;;
57663;SDS011;43493;53.098;6.064;2022-10-16T10:45:52;14.57;;;2.77;;
57663;SDS011;43493;53.098;6.064;2022-10-16T10:51:12;9.17;;;2.30;;
57663;SDS011;43493;53.098;6.064;2022-10-16T10:59:07;12.33;;;2.70;;
57663;SDS011;43493;53.098;6.064;2022-10-16T11:06:50;11.52;;;2.50;;
57663;SDS011;43493;53.098;6.064;2022-10-16T11:12:41;13.17;;;2.37;;
57663;SDS011;43493;53.098;6.064;2022-10-16T11:17:37;17.25;;;3.55;;
57663;SDS011;43493;53.098;6.064;2022-10-16T11:23:02;15.13;;;4.10;;
57663;SDS011;43493;53.098;6.064;2022-10-16T11:25:31;17.57;;;3.30;;
57663;SDS011;43493;53.098;6.064;2022-10-16T11:30:27;18.33;;;2.87;;
57663;SDS011;43493;53.098;6.064;2022-10-16T11:33:00;16.70;;;3.33;;
57663;SDS011;43493;53.098;6.064;2022-10-16T11:35:51;16.15;;;3.00;;
57663;SDS011;43493;53.098;6.064;2022-10-16T11:41:00;14.40;;;3.40;;
57663;SDS011;43493;53.098;6.064;2022-10-16T11:43:29;17.47;;;3.30;;
57663;SDS011;43493;53.098;6.064;2022-10-16T11:45:57;13.93;;;2.90;;
57663;SDS011;43493;53.098;6.064;2022-10-16T11:48:30;18.33;;;3.23;;
57663;SDS011;43493;53.098;6.064;2022-10-16T11:53:46;19.57;;;3.77;;
57663;SDS011;43493;53.098;6.064;2022-10-16T11:56:15;14.37;;;3.97;;
57663;SDS011;43493;53.098;6.064;2022-10-16T12:01:34;13.87;;;3.20;;
57663;SDS011;43493;53.098;6.064;2022-10-16T12:09:30;16.43;;;3.50;;
57663;SDS011;43493;53.098;6.064;2022-10-16T12:11:57;19.07;;;3.97;;
57663;SDS011;43493;53.098;6.064;2022-10-16T12:19:40;12.82;;;2.97;;
57663;SDS011;43493;53.098;6.064;2022-10-16T12:22:15;17.80;;;3.80;;
57663;SDS011;43493;53.098;6.064;2022-10-16T12:24:44;11.73;;;2.87;;
57663;SDS011;43493;53.098;6.064;2022-10-16T12:29:48;16.20;;;3.20;;
57663;SDS011;43493;53.098;6.064;2022-10-16T12:32:30;11.47;;;2.40;;
57663;SDS011;43493;53.098;6.064;2022-10-16T12:34:57;11.67;;;2.67;;
57663;SDS011;43493;53.098;6.064;2022-10-16T12:37:25;13.37;;;2.80;;
57663;SDS011;43493;53.098;6.064;2022-10-16T12:39:52;15.00;;;3.00;;
57663;SDS011;43493;53.098;6.064;2022-10-16T12:44:45;12.90;;;2.57;;
57663;SDS011;43493;53.098;6.064;2022-10-16T12:49:51;17.73;;;3.33;;
57663;SDS011;43493;53.098;6.064;2022-10-16T12:52:50;17.60;;;3.30;;
57663;SDS011;43493;53.098;6.064;2022-10-16T12:55:16;12.97;;;2.43;;
57663;SDS011;43493;53.098;6.064;2022-10-16T13:00:18;9.63;;;2.70;;
57663;SDS011;43493;53.098;6.064;2022-10-16T13:10:39;17.87;;;3.53;;
57663;SDS011;43493;53.098;6.064;2022-10-16T13:15:39;12.03;;;2.83;;
57663;SDS011;43493;53.098;6.064;2022-10-16T13:21:12;8.73;;;2.10;;
57663;SDS011;43493;53.098;6.064;2022-10-16T13:23:49;7.97;;;2.50;;
57663;SDS011;43493;53.098;6.064;2022-10-16T13:26:31;12.37;;;2.60;;
57663;SDS011;43493;53.098;6.064;2022-10-16T13:29:00;10.70;;;2.60;;
57663;SDS011;43493;53.098;6.064;2022-10-16T13:31:26;13.53;;;2.70;;
57663;SDS011;43493;53.098;6.064;2022-10-16T13:33:55;12.77;;;3.37;;
57663;SDS011;43493;53.098;6.064;2022-10-16T13:36:28;13.87;;;2.73;;
57663;SDS011;43493;53.098;6.064;2022-10-16T13:41:36;14.83;;;2.87;;
57663;SDS011;43493;53.098;6.064;2022-10-16T13:44:02;16.47;;;2.80;;
57663;SDS011;43493;53.098;6.064;2022-10-16T13:46:28;12.47;;;2.90;;
57663;SDS011;43493;53.098;6.064;2022-10-16T13:49:03;14.50;;;2.97;;
57663;SDS011;43493;53.098;6.064;2022-10-16T13:51:29;13.20;;;3.60;;
57663;SDS011;43493;53.098;6.064;2022-10-16T13:53:56;10.10;;;2.37;;
57663;SDS011;43493;53.098;6.064;2022-10-16T13:56:22;10.60;;;2.30;;
57663;SDS011;43493;53.098;6.064;2022-10-16T13:59:04;11.37;;;2.40;;
57663;SDS011;43493;53.098;6.064;2022-10-16T14:01:34;17.13;;;3.37;;
57663;SDS011;43493;53.098;6.064;2022-10-16T14:04:04;14.43;;;2.53;;
57663;SDS011;43493;53.098;6.064;2022-10-16T14:06:31;15.40;;;3.50;;
57663;SDS011;43493;53.098;6.064;2022-10-16T14:09:03;18.03;;;3.97;;
57663;SDS011;43493;53.098;6.064;2022-10-16T14:11:31;16.20;;;3.83;;
57663;SDS011;43493;53.098;6.064;2022-10-16T14:13:57;12.57;;;2.90;;
57663;SDS011;43493;53.098;6.064;2022-10-16T14:16:25;12.83;;;2.67;;
57663;SDS011;43493;53.098;6.064;2022-10-16T14:21:25;13.77;;;2.93;;
57663;SDS011;43493;53.098;6.064;2022-10-16T14:23:51;10.07;;;2.10;;
57663;SDS011;43493;53.098;6.064;2022-10-16T14:26:19;14.40;;;3.17;;
57663;SDS011;43493;53.098;6.064;2022-10-16T14:28:46;13.17;;;3.27;;
57663;SDS011;43493;53.098;6.064;2022-10-16T14:33:45;15.27;;;3.83;;
57663;SDS011;43493;53.098;6.064;2022-10-16T14:36:12;14.90;;;2.90;;
57663;SDS011;43493;53.098;6.064;2022-10-16T14:38:40;17.00;;;3.43;;
57663;SDS011;43493;53.098;6.064;2022-10-16T14:41:07;11.17;;;2.23;;
57663;SDS011;43493;53.098;6.064;2022-10-16T14:45:59;14.23;;;3.00;;
57663;SDS011;43493;53.098;6.064;2022-10-16T14:48:27;17.03;;;3.07;;
57663;SDS011;43493;53.098;6.064;2022-10-16T14:50:53;17.17;;;2.97;;
57663;SDS011;43493;53.098;6.064;2022-10-16T14:53:19;12.90;;;3.20;;
57663;SDS011;43493;53.098;6.064;2022-10-16T14:55:45;14.00;;;3.00;;
57663;SDS011;43493;53.098;6.064;2022-10-16T14:58:17;15.30;;;2.83;;
57663;SDS011;43493;53.098;6.064;2022-10-16T15:00:44;11.63;;;3.10;;
57663;SDS011;43493;53.098;6.064;2022-10-16T15:03:10;17.60;;;3.27;;
57663;SDS011;43493;53.098;6.064;2022-10-16T15:05:36;17.10;;;3.07;;
57663;SDS011;43493;53.098;6.064;2022-10-16T15:08:03;16.93;;;3.10;;
57663;SDS011;43493;53.098;6.064;2022-10-16T15:10:33;17.33;;;3.80;;
57663;SDS011;43493;53.098;6.064;2022-10-16T15:13:01;14.13;;;3.03;;
57663;SDS011;43493;53.098;6.064;2022-10-16T15:17:54;15.07;;;3.67;;
57663;SDS011;43493;53.098;6.064;2022-10-16T15:20:25;12.97;;;3.07;;
57663;SDS011;43493;53.098;6.064;2022-10-16T15:22:51;11.63;;;2.73;;
57663;SDS011;43493;53.098;6.064;2022-10-16T15:28:02;16.63;;;4.30;;
57663;SDS011;43493;53.098;6.064;2022-10-16T15:30:28;18.60;;;3.30;;
57663;SDS011;43493;53.098;6.064;2022-10-16T15:32:54;16.80;;;3.40;;
57663;SDS011;43493;53.098;6.064;2022-10-16T15:35:20;15.60;;;3.63;;
57663;SDS011;43493;53.098;6.064;2022-10-16T15:37:47;13.47;;;4.60;;
57663;SDS011;43493;53.098;6.064;2022-10-16T15:40:13;17.33;;;4.37;;
57663;SDS011;43493;53.098;6.064;2022-10-16T15:42:40;16.40;;;4.57;;
57663;SDS011;43493;53.098;6.064;2022-10-16T15:45:06;16.03;;;3.70;;
57663;SDS011;43493;53.098;6.064;2022-10-16T15:47:32;14.03;;;3.80;;
57663;SDS011;43493;53.098;6.064;2022-10-16T15:49:58;15.40;;;3.93;;
57663;SDS011;43493;53.098;6.064;2022-10-16T15:52:24;16.60;;;3.70;;
57663;SDS011;43493;53.098;6.064;2022-10-16T15:54:51;14.50;;;3.60;;
57663;SDS011;43493;53.098;6.064;2022-10-16T15:57:17;19.63;;;4.43;;
57663;SDS011;43493;53.098;6.064;2022-10-16T15:59:43;18.63;;;4.70;;
57663;SDS011;43493;53.098;6.064;2022-10-16T16:02:09;15.43;;;5.63;;
57663;SDS011;43493;53.098;6.064;2022-10-16T16:04:35;15.23;;;5.03;;
57663;SDS011;43493;53.098;6.064;2022-10-16T16:07:01;17.87;;;4.63;;
57663;SDS011;43493;53.098;6.064;2022-10-16T16:09:30;17.73;;;5.47;;
57663;SDS011;43493;53.098;6.064;2022-10-16T16:11:56;15.07;;;4.87;;
57663;SDS011;43493;53.098;6.064;2022-10-16T16:14:25;16.23;;;5.37;;
57663;SDS011;43493;53.098;6.064;2022-10-16T16:16:53;16.97;;;5.30;;
57663;SDS011;43493;53.098;6.064;2022-10-16T16:19:19;14.57;;;4.93;;
57663;SDS011;43493;53.098;6.064;2022-10-16T16:21:46;14.60;;;4.47;;
57663;SDS011;43493;53.098;6.064;2022-10-16T16:24:12;14.87;;;4.83;;
57663;SDS011;43493;53.098;6.064;2022-10-16T16:26:38;17.53;;;5.27;;
57663;SDS011;43493;53.098;6.064;2022-10-16T16:29:09;15.67;;;6.33;;
57663;SDS011;43493;53.098;6.064;2022-10-16T16:31:38;19.70;;;8.70;;
57663;SDS011;43493;53.098;6.064;2022-10-16T16:34:04;18.70;;;8.10;;
57663;SDS011;43493;53.098;6.064;2022-10-16T16:36:30;18.53;;;7.23;;
57663;SDS011;43493;53.098;6.064;2022-10-16T16:38:57;16.43;;;4.67;;
57663;SDS011;43493;53.098;6.064;2022-10-16T16:41:24;14.43;;;4.57;;
57663;SDS011;43493;53.098;6.064;2022-10-16T16:43:51;18.73;;;6.33;;
57663;SDS011;43493;53.098;6.064;2022-10-16T16:46:17;19.27;;;5.40;;
57663;SDS011;43493;53.098;6.064;2022-10-16T16:48:44;16.47;;;5.53;;
57663;SDS011;43493;53.098;6.064;2022-10-16T16:51:11;17.90;;;6.23;;
57663;SDS011;43493;53.098;6.064;2022-10-16T16:53:44;18.50;;;6.50;;
57663;SDS011;43493;53.098;6.064;2022-10-16T16:56:10;20.00;;;6.90;;
57663;SDS011;43493;53.098;6.064;2022-10-16T16:58:37;15.57;;;5.70;;
57663;SDS011;43493;53.098;6.064;2022-10-16T17:01:03;16.70;;;5.30;;